createdAt,value
2022-12-31T00:00:42.976Z,101949.59
2022-12-31T00:03:46.081Z,101950.09
2022-12-31T00:06:49.747Z,101964.53
2022-12-31T00:09:54.605Z,101962.44
2022-12-31T00:12:59.444Z,101985.69
2022-12-31T00:16:12.525Z,101979.97
2022-12-31T00:19:15.596Z,101979.06
2022-12-31T00:22:17.679Z,101980.16
2022-12-31T00:25:20.243Z,101985.88
2022-12-31T00:28:22.626Z,101988.66
2022-12-31T00:31:34.931Z,101987.28
2022-12-31T00:34:37.421Z,101981.59
2022-12-31T00:37:39.640Z,101997.25
2022-12-31T00:40:41.728Z,101983.09
2022-12-31T00:43:44.872Z,101976.59
2022-12-31T00:46:46.857Z,101973.47
2022-12-31T00:49:48.913Z,101980.19
2022-12-31T00:52:53.315Z,101990.41
2022-12-31T00:56:03.377Z,101995.13
2022-12-31T00:59:06.125Z,101993.66
2022-12-31T01:02:08.700Z,101989.13
2022-12-31T01:05:11.354Z,101986.47
2022-12-31T01:08:13.441Z,101992.75
2022-12-31T01:11:29.673Z,101991.47
2022-12-31T01:14:34.065Z,101987.34
2022-12-31T01:17:36.394Z,101978.72
2022-12-31T01:20:42.258Z,101981.63
2022-12-31T01:23:44.848Z,101969.63
2022-12-31T01:26:49.440Z,101971.22
2022-12-31T01:29:51.646Z,101984.00
2022-12-31T01:32:53.853Z,101973.00
2022-12-31T01:35:55.869Z,101989.00
2022-12-31T01:39:01.265Z,101981.50
2022-12-31T01:42:03.675Z,101985.72
2022-12-31T01:45:11.369Z,101990.50
2022-12-31T01:48:17.980Z,101980.34
2022-12-31T01:51:21.490Z,101987.75
2022-12-31T01:54:27.444Z,101990.88
2022-12-31T01:57:30.833Z,101985.16
2022-12-31T02:00:33.585Z,101979.75
2022-12-31T02:03:36.623Z,101976.91
2022-12-31T02:06:43.263Z,101991.13
2022-12-31T02:09:45.433Z,101978.19
2022-12-31T02:12:48.751Z,101972.00
2022-12-31T02:16:05.822Z,101992.72
2022-12-31T02:19:27.860Z,101986.06
2022-12-31T02:23:06.811Z,101996.22
2022-12-31T02:26:37.837Z,101994.19
2022-12-31T02:29:49.609Z,102000.69
2022-12-31T02:33:02.631Z,102009.97
2022-12-31T02:36:15.827Z,101988.72
2022-12-31T02:39:18.661Z,101987.53
2022-12-31T02:42:20.716Z,101983.31
2022-12-31T02:45:29.804Z,101986.59
2022-12-31T02:48:46.695Z,101993.56
2022-12-31T02:52:02.210Z,101987.59
2022-12-31T02:55:14.722Z,102007.97
2022-12-31T02:59:05.017Z,102012.69
2022-12-31T03:02:16.683Z,102002.56
2022-12-31T03:05:26.140Z,102000.03
2022-12-31T03:08:28.591Z,101997.09
2022-12-31T03:11:49.260Z,101998.84
2022-12-31T03:14:53.137Z,102017.69
2022-12-31T03:18:02.994Z,102015.16
2022-12-31T03:21:31.595Z,102006.31
2022-12-31T03:24:52.546Z,102021.09
2022-12-31T03:27:56.026Z,102022.50
2022-12-31T03:31:02.188Z,102023.78
2022-12-31T03:34:07.968Z,102011.13
2022-12-31T03:37:11.333Z,102018.50
2022-12-31T03:40:14.714Z,102020.25
2022-12-31T03:43:19.411Z,102029.59
2022-12-31T03:46:21.875Z,102025.50
2022-12-31T03:49:24.431Z,102015.47
2022-12-31T03:52:27.120Z,102016.88
2022-12-31T03:55:30.494Z,102006.94
2022-12-31T03:58:33.979Z,102025.69
2022-12-31T04:01:36.246Z,102024.84
2022-12-31T04:04:39.621Z,102005.81
2022-12-31T04:07:42.496Z,102037.91
2022-12-31T04:10:45.922Z,102022.41
2022-12-31T04:13:49.025Z,102019.03
2022-12-31T04:16:52.037Z,102035.34
2022-12-31T04:19:55.410Z,102036.78
2022-12-31T04:22:57.555Z,102015.34
2022-12-31T04:26:00.358Z,102029.97
2022-12-31T04:29:04.123Z,102020.16
2022-12-31T04:32:07.670Z,102037.31
2022-12-31T04:35:11.722Z,102030.13
2022-12-31T04:38:13.828Z,102043.88
2022-12-31T04:41:18.836Z,102044.63
2022-12-31T04:44:21.554Z,102044.78
2022-12-31T04:47:24.693Z,102072.75
2022-12-31T04:50:26.890Z,102061.81
2022-12-31T04:53:29.614Z,102079.72
2022-12-31T04:56:33.199Z,102059.97
2022-12-31T04:59:35.310Z,102055.00
2022-12-31T05:02:37.814Z,102073.44
2022-12-31T05:05:42.822Z,102061.78
2022-12-31T05:08:44.957Z,102057.69
2022-12-31T05:11:47.618Z,102048.72
2022-12-31T05:14:52.048Z,102053.97
2022-12-31T05:17:54.441Z,102061.06
2022-12-31T05:20:56.760Z,102061.66
2022-12-31T05:23:59.028Z,102057.81
2022-12-31T05:27:01.285Z,102062.38
2022-12-31T05:30:05.020Z,102065.94
2022-12-31T05:33:07.177Z,102078.06
2022-12-31T05:36:09.585Z,102074.59
2022-12-31T05:39:12.512Z,102076.88
2022-12-31T05:42:16.040Z,102086.25
2022-12-31T05:45:18.715Z,102086.72
2022-12-31T05:48:20.989Z,102071.84
2022-12-31T05:51:23.171Z,102072.59
2022-12-31T05:54:25.238Z,102080.09
2022-12-31T05:57:27.359Z,102062.13
2022-12-31T06:00:29.450Z,102065.47
2022-12-31T06:03:31.738Z,102072.88
2022-12-31T06:06:33.797Z,102075.91
2022-12-31T06:09:35.932Z,102075.75
2022-12-31T06:12:39.851Z,102078.88
2022-12-31T06:15:41.905Z,102084.03
2022-12-31T06:18:44.056Z,102097.44
2022-12-31T06:21:46.155Z,102095.28
2022-12-31T06:24:48.319Z,102096.47
2022-12-31T06:27:50.342Z,102104.03
2022-12-31T06:31:00.181Z,102108.88
2022-12-31T06:34:02.684Z,102106.19
2022-12-31T06:37:04.902Z,102126.44
2022-12-31T06:40:07.956Z,102131.28
2022-12-31T06:43:11.079Z,102127.13
2022-12-31T06:46:16.576Z,102123.56
2022-12-31T06:49:18.698Z,102125.06
2022-12-31T06:52:21.432Z,102127.34
2022-12-31T06:55:26.371Z,102139.50
2022-12-31T06:58:28.845Z,102130.88
2022-12-31T07:01:39.840Z,102136.00
2022-12-31T07:05:00.630Z,102132.84
2022-12-31T07:08:24.199Z,102143.72
2022-12-31T07:11:52.286Z,102140.34
2022-12-31T07:15:16.142Z,102143.75
2022-12-31T07:18:33.064Z,102140.53
2022-12-31T07:21:40.176Z,102142.03
2022-12-31T07:24:43.436Z,102140.63
2022-12-31T07:27:57.394Z,102131.81
2022-12-31T07:31:43.051Z,102143.91
2022-12-31T07:34:57.285Z,102143.06
2022-12-31T07:38:18.491Z,102145.78
2022-12-31T07:41:27.402Z,102140.00
2022-12-31T07:44:53.415Z,102142.94
2022-12-31T07:48:02.116Z,102144.41
2022-12-31T07:51:05.147Z,102143.53
2022-12-31T07:54:13.393Z,102150.88
2022-12-31T07:57:18.858Z,102147.84
2022-12-31T08:00:29.545Z,102145.44
2022-12-31T08:04:03.790Z,102147.03
2022-12-31T08:07:18.969Z,102158.16
2022-12-31T08:10:32.398Z,102157.28
2022-12-31T08:13:34.575Z,102144.03
2022-12-31T08:16:36.930Z,102150.06
2022-12-31T08:19:39.381Z,102149.28
2022-12-31T08:22:51.230Z,102169.09
2022-12-31T08:26:30.152Z,102150.72
2022-12-31T08:29:32.260Z,102149.88
2022-12-31T08:32:57.212Z,102152.44
2022-12-31T08:36:10.474Z,102144.09
2022-12-31T08:39:36.419Z,102153.44
2022-12-31T08:43:11.652Z,102143.09
2022-12-31T08:46:27.895Z,102148.16
2022-12-31T08:49:34.638Z,102138.97
2022-12-31T08:52:36.934Z,102120.25
2022-12-31T08:55:42.128Z,102099.69
2022-12-31T08:59:12.986Z,102102.19
2022-12-31T09:02:24.022Z,102109.53
2022-12-31T09:05:31.957Z,102116.63
2022-12-31T09:08:55.228Z,102099.44
2022-12-31T09:12:20.662Z,102093.88
2022-12-31T09:15:58.475Z,102098.81
2022-12-31T09:19:01.373Z,102088.50
2022-12-31T09:22:04.696Z,102075.63
2022-12-31T09:25:14.391Z,102080.72
2022-12-31T09:28:44.526Z,102080.81
2022-12-31T09:32:02.091Z,102075.97
2022-12-31T09:35:37.116Z,102071.03
2022-12-31T09:39:00.297Z,102072.03
2022-12-31T09:42:21.665Z,102062.16
2022-12-31T09:46:05.180Z,102062.63
2022-12-31T09:49:23.145Z,102066.16
2022-12-31T09:53:02.634Z,102066.78
2022-12-31T09:56:10.860Z,102062.97
2022-12-31T09:59:21.717Z,102063.78
2022-12-31T10:02:37.097Z,102049.44
2022-12-31T10:06:22.218Z,102059.38
2022-12-31T10:09:29.216Z,102060.69
2022-12-31T10:12:49.352Z,102059.91
2022-12-31T10:16:03.183Z,102060.16
2022-12-31T10:19:17.224Z,102063.31
2022-12-31T10:22:37.644Z,102055.28
2022-12-31T10:26:03.771Z,102055.78
2022-12-31T10:29:23.807Z,102062.59
2022-12-31T10:32:52.517Z,102061.44
2022-12-31T10:36:04.766Z,102061.09
2022-12-31T10:39:33.609Z,102046.41
2022-12-31T10:42:38.414Z,102045.19
2022-12-31T10:46:40.142Z,102044.50
2022-12-31T10:49:45.074Z,102033.56
2022-12-31T10:53:05.312Z,102017.44
2022-12-31T10:56:35.163Z,102027.47
2022-12-31T11:00:06.031Z,102012.19
2022-12-31T11:03:50.605Z,101991.34
2022-12-31T11:07:14.306Z,102009.72
2022-12-31T11:10:34.893Z,102002.41
2022-12-31T11:14:21.219Z,101996.53
2022-12-31T11:17:49.145Z,102006.94
2022-12-31T11:21:13.929Z,101992.06
2022-12-31T11:24:37.207Z,101981.41
2022-12-31T11:28:18.462Z,101975.81
2022-12-31T11:31:47.683Z,101976.31
2022-12-31T11:35:04.675Z,101978.13
2022-12-31T11:38:20.655Z,101977.28
2022-12-31T11:41:39.872Z,101993.25
2022-12-31T11:44:49.258Z,101986.97
2022-12-31T11:48:32.946Z,101996.81
2022-12-31T11:51:52.471Z,101996.34
2022-12-31T11:55:12.250Z,101987.16
2022-12-31T11:58:17.202Z,101993.47
2022-12-31T12:01:30.951Z,101990.59
2022-12-31T12:04:33.244Z,101999.03
2022-12-31T12:07:35.570Z,101991.47
2022-12-31T12:11:07.607Z,101992.97
2022-12-31T12:14:30.100Z,101996.06
2022-12-31T12:17:34.554Z,101988.06
2022-12-31T12:20:38.976Z,101985.38
2022-12-31T12:23:42.687Z,101986.72
2022-12-31T12:26:48.987Z,101991.19
2022-12-31T12:29:51.103Z,101992.50
2022-12-31T12:33:01.597Z,101985.72
2022-12-31T12:36:11.977Z,101988.97
2022-12-31T12:39:28.976Z,101987.78
2022-12-31T12:42:31.836Z,101989.47
2022-12-31T12:45:51.832Z,102002.41
2022-12-31T12:48:58.412Z,102000.88
2022-12-31T12:52:21.716Z,102001.56
2022-12-31T12:55:26.474Z,101994.75
2022-12-31T12:58:43.086Z,101986.78
2022-12-31T13:02:10.750Z,101984.59
2022-12-31T13:05:39.872Z,101995.63
2022-12-31T13:08:57.135Z,102001.31
2022-12-31T13:12:56.917Z,101995.53
2022-12-31T13:16:32.169Z,101987.13
2022-12-31T13:19:47.706Z,101981.66
2022-12-31T13:23:36.200Z,101982.94
2022-12-31T13:27:02.264Z,101988.13
2022-12-31T13:30:15.542Z,101994.72
2022-12-31T13:33:23.269Z,101976.31
2022-12-31T13:36:28.776Z,101976.19
2022-12-31T13:39:36.608Z,101980.53
2022-12-31T13:42:53.391Z,101989.66
2022-12-31T13:46:21.239Z,101990.25
2022-12-31T13:49:46.506Z,101988.41
2022-12-31T13:52:57.238Z,101985.41
2022-12-31T13:56:04.258Z,101972.75
2022-12-31T13:59:12.902Z,101985.28
2022-12-31T14:02:18.305Z,102001.13
2022-12-31T14:05:30.249Z,101988.72
2022-12-31T14:08:32.327Z,101980.69
2022-12-31T14:11:55.283Z,101997.97
2022-12-31T14:15:13.329Z,102005.38
2022-12-31T14:18:37.923Z,101994.13
2022-12-31T14:21:49.770Z,102007.25
2022-12-31T14:24:52.522Z,102018.44
2022-12-31T14:27:56.722Z,101993.94
2022-12-31T14:31:37.066Z,102001.50
2022-12-31T14:39:20.975Z,101997.69
2022-12-31T14:42:36.881Z,102002.03
2022-12-31T14:45:38.885Z,102002.56
2022-12-31T14:48:46.903Z,101991.22
2022-12-31T14:51:51.856Z,101992.78
2022-12-31T14:55:08.085Z,101995.13
2022-12-31T14:58:34.704Z,101981.47
2022-12-31T15:01:49.379Z,101967.72
2022-12-31T15:05:26.587Z,101984.88
2022-12-31T15:08:43.152Z,101980.53
2022-12-31T15:12:09.741Z,101978.00
2022-12-31T15:15:33.574Z,101982.28
2022-12-31T15:18:53.610Z,101983.44
2022-12-31T15:22:24.435Z,101988.53
2022-12-31T15:25:40.874Z,101988.34
2022-12-31T15:28:43.734Z,101987.91
2022-12-31T15:31:48.167Z,101996.78
2022-12-31T15:35:02.115Z,102002.78
2022-12-31T15:38:38.210Z,102001.56
2022-12-31T15:42:10.215Z,102002.97
2022-12-31T15:45:13.934Z,102013.34
2022-12-31T15:48:26.376Z,102017.13
2022-12-31T15:51:33.194Z,102021.84
2022-12-31T15:54:39.713Z,102018.59
2022-12-31T15:57:43.742Z,102023.06
2022-12-31T16:01:02.319Z,102007.72
2022-12-31T16:04:33.624Z,102015.25
2022-12-31T16:07:35.900Z,102009.13
2022-12-31T16:10:38.197Z,102018.34
2022-12-31T16:13:47.358Z,102013.41
2022-12-31T16:17:27.406Z,102003.25
2022-12-31T16:20:32.537Z,102014.63
2022-12-31T16:23:42.053Z,102012.84
2022-12-31T16:26:48.325Z,102007.94
2022-12-31T16:29:58.751Z,102008.38
2022-12-31T16:33:04.143Z,102016.59
2022-12-31T16:36:18.834Z,101999.56
2022-12-31T16:39:29.539Z,102016.09
2022-12-31T16:42:33.139Z,102020.97
2022-12-31T16:45:36.968Z,102024.81
2022-12-31T16:48:39.490Z,102014.53
2022-12-31T16:51:42.513Z,102014.19
2022-12-31T16:54:50.484Z,102010.06
2022-12-31T16:58:03.095Z,102033.22
2022-12-31T17:01:36.649Z,102023.88
2022-12-31T17:04:45.916Z,102022.53
2022-12-31T17:07:50.477Z,102022.03
2022-12-31T17:10:56.751Z,102015.56
2022-12-31T17:14:10.550Z,102022.53
2022-12-31T17:17:23.756Z,102026.81
2022-12-31T17:20:29.117Z,102019.41
2022-12-31T17:23:33.877Z,102021.22
2022-12-31T17:26:38.136Z,102015.28
2022-12-31T17:29:40.415Z,102007.50
2022-12-31T17:32:43.647Z,102015.47
2022-12-31T17:35:46.108Z,102022.94
2022-12-31T17:38:49.617Z,102029.75
2022-12-31T17:41:55.805Z,102028.94
2022-12-31T17:45:15.780Z,102019.75
2022-12-31T17:48:20.142Z,102013.34
2022-12-31T17:51:24.269Z,102023.34
2022-12-31T17:54:26.764Z,102009.25
2022-12-31T17:57:37.681Z,102005.03
2022-12-31T18:00:39.879Z,102010.28
2022-12-31T18:03:44.892Z,102008.59
2022-12-31T18:06:58.620Z,102012.50
2022-12-31T18:10:32.462Z,102022.34
2022-12-31T18:13:41.195Z,102008.38
2022-12-31T18:17:14.614Z,102024.72
2022-12-31T18:20:17.896Z,102007.53
2022-12-31T18:23:36.744Z,102028.38
2022-12-31T18:26:51.242Z,102018.19
2022-12-31T18:30:02.238Z,102013.97
2022-12-31T18:33:28.239Z,102016.00
2022-12-31T18:37:17.928Z,102039.97
2022-12-31T18:44:32.265Z,102061.69
2022-12-31T18:47:37.617Z,102055.69
2022-12-31T18:50:41.105Z,102054.34
2022-12-31T18:53:43.709Z,102049.91
2022-12-31T18:56:49.203Z,102045.47
2022-12-31T18:59:55.039Z,102053.66
2022-12-31T19:02:59.595Z,102056.19
2022-12-31T19:06:02.012Z,102063.16
2022-12-31T19:09:09.344Z,102061.22
2022-12-31T19:12:25.605Z,102073.28
2022-12-31T19:15:41.600Z,102062.25
2022-12-31T19:18:43.865Z,102075.44
2022-12-31T19:21:46.467Z,102070.88
2022-12-31T19:24:48.563Z,102053.56
2022-12-31T19:27:51.559Z,102040.84
2022-12-31T19:30:54.062Z,102056.75
2022-12-31T19:33:56.397Z,102051.13
2022-12-31T19:36:58.505Z,102052.31
2022-12-31T19:40:11.673Z,102056.59
2022-12-31T19:43:15.953Z,102069.84
2022-12-31T19:46:18.991Z,102066.38
2022-12-31T19:49:21.170Z,102054.00
2022-12-31T19:52:23.255Z,102054.00
2022-12-31T19:55:26.476Z,102056.81
2022-12-31T19:58:32.558Z,102051.25
2022-12-31T20:01:34.930Z,102037.91
2022-12-31T20:04:37.150Z,102050.13
2022-12-31T20:07:39.807Z,102046.88
2022-12-31T20:10:41.834Z,102047.50
2022-12-31T20:13:44.647Z,102046.13
2022-12-31T20:16:48.958Z,102055.63
2022-12-31T20:19:51.629Z,102042.88
2022-12-31T20:22:53.939Z,102060.81
2022-12-31T20:25:58.120Z,102055.03
2022-12-31T20:29:03.382Z,102061.63
2022-12-31T20:32:06.011Z,102079.25
2022-12-31T20:35:08.074Z,102078.41
2022-12-31T20:38:10.276Z,102089.53
2022-12-31T20:41:18.757Z,102093.22
2022-12-31T20:44:21.249Z,102082.28
2022-12-31T20:47:23.276Z,102083.75
2022-12-31T20:50:25.305Z,102080.44
2022-12-31T20:53:27.926Z,102081.50
2022-12-31T20:56:33.321Z,102093.81
2022-12-31T20:59:35.347Z,102080.38
2022-12-31T21:02:42.654Z,102086.94
2022-12-31T21:05:54.472Z,102083.53
2022-12-31T21:08:59.416Z,102073.84
2022-12-31T21:12:20.300Z,102081.66
2022-12-31T21:15:22.362Z,102084.91
2022-12-31T21:18:24.662Z,102079.09
2022-12-31T21:21:26.848Z,102094.88
2022-12-31T21:24:28.904Z,102096.47
2022-12-31T21:27:31.133Z,102100.88
2022-12-31T21:30:33.656Z,102099.34
2022-12-31T21:33:35.825Z,102094.38
2022-12-31T21:36:37.908Z,102100.13
2022-12-31T21:39:40.128Z,102098.03
2022-12-31T21:42:42.344Z,102100.13
2022-12-31T21:45:52.316Z,102100.13
2022-12-31T21:48:58.840Z,102084.59
2022-12-31T21:52:19.675Z,102080.28
2022-12-31T21:55:40.472Z,102088.34
2022-12-31T21:58:44.704Z,102077.44
2022-12-31T22:02:05.160Z,102074.13
2022-12-31T22:05:17.333Z,102078.66
2022-12-31T22:08:24.588Z,102087.28
2022-12-31T22:11:28.469Z,102078.28
2022-12-31T22:14:30.994Z,102069.72
2022-12-31T22:17:33.014Z,102085.63
2022-12-31T22:20:35.916Z,102088.16
2022-12-31T22:23:38.700Z,102085.22
2022-12-31T22:26:46.515Z,102093.94
2022-12-31T22:29:48.981Z,102096.91
2022-12-31T22:32:51.299Z,102098.50
2022-12-31T22:36:01.759Z,102086.66
2022-12-31T22:39:04.924Z,102081.91
2022-12-31T22:42:08.518Z,102079.66
2022-12-31T22:45:11.965Z,102074.75
2022-12-31T22:48:14.070Z,102082.91
2022-12-31T22:51:19.986Z,102099.94
2022-12-31T22:54:22.135Z,102101.25
2022-12-31T22:57:24.138Z,102078.19
2022-12-31T23:00:39.801Z,102094.97
2022-12-31T23:03:42.949Z,102082.22
2022-12-31T23:06:46.838Z,102100.53
2022-12-31T23:10:08.192Z,102103.22
2022-12-31T23:13:30.882Z,102097.06
2022-12-31T23:20:52.223Z,102100.38
2022-12-31T23:23:57.694Z,102083.91
2022-12-31T23:27:28.944Z,102092.97
2022-12-31T23:30:31.064Z,102091.91
2022-12-31T23:33:35.545Z,102090.34
2022-12-31T23:36:42.977Z,102085.41
2022-12-31T23:39:48.220Z,102086.25
2022-12-31T23:42:50.525Z,102085.47
2022-12-31T23:45:52.768Z,102099.31
2022-12-31T23:48:54.767Z,102106.75
2022-12-31T23:51:59.669Z,102105.72
2022-12-31T23:55:03.836Z,102095.28
2022-12-31T23:58:07.523Z,102109.97
